Dyess Air Force Base
KDYS : now visible

Airfield :











YOU CAN JOIN US ON...

 
LOGIN :

Register | Disclaimer

   EN    FR    IT 

 









Legend :    VFR   Marginal VFR   IFR   Intensive IFR   Very Intensive IFR
Visi :
Ceiling :
>= 8 km
>= 3000ft
5 to 8 km
1000 to 3000 ft
1500m to 5 km
500 to 1000 ft
800 to 1500m
200 to 500 ft
< 800m
< 200 ft
Symbols :   Thunderstorms  Fog  Heavy snow  Heavy precipitations  Wind > 20 kt







- Airport Elevation : 1789 ft


KDYS - Dyess Air Force Base

CURRENT METAR :
  • 172056Z AUTO 01011KT 10SM FEW200 11/M06 A2994 RMK AO2 SLP130 T01051059 57021 $

EXPIRED METARs :
  • 171956Z AUTO 02007KT 10SM FEW170 FEW200 10/M04 A2996 RMK AO2 SLP140 T00991045 $
  • 171856Z AUTO 02010KT 10SM FEW110 SCT190 09/M05 A2998 RMK AO2 SLP144 T00941046 $

TAF AMD TAF KDYS
Valid from the 17 at 01:00 until the 18 at 07:00 UTC


170155Z 1701/1807 17012KT 9999 BKN200 QNH2956INS
BECMG 1705/1706 27010G15KT 9999 SKC QNH2964INS
BECMG 1711/1712 34012KT 9999 SKC QNH2974INS
BECMG 1717/1718 02012KT 9999 SKC QNH2981INS
BECMG 1801/1802 09009KT 9999 SKC QNH2989INS TX15/1722Z TN00/1712Z LAST NO AMDS AFT 1702 NEXT 1909
KZFW FIR / North America



MET'MAP, your aeronautical weather chart ! - Copyright ORBIFLY December 2007 - Disclaimer

ORBIFLY MET'MAP TEAM :

Programming & Development : Alexandra Zaïnal
Concept & Development : Baudouin d'Aumeries
Co-Development & Prog : Marc-Olivier Méhu
Technical & hardware support : Manuel Goepfert

Contact : metmap@orbifly.com




SOURCES & CREDITS :

   NOAA       Earth
Advisory